Time;durP1;ratioP1;P1;durP2;ratioP2;P2;SDS_P1;SDS_P2;PMS_P1;PMS_P2;Temp;Humidity;BMP_temperature;BMP_pressure;BME280_temperature;BME280_humidity;BME280_pressure;Samples;Min_cycle;Max_cycle;Signal;HPM_P1;HPM_P2
2023/05/25 00:02:13;;;;;;;3.88;1.50;;;;;;;;;;12821637;23;20048;-86
2023/05/25 00:07:18;;;;;;;2.90;1.70;;;;;;;;;;12827058;23;20033;-86
2023/05/25 00:12:22;;;;;;;3.33;1.50;;;;;;;;;;12825987;23;20249;-86
2023/05/25 00:17:30;;;;;;;2.50;1.50;;;;;;;;;;12824568;23;20071;-85
2023/05/25 00:22:36;;;;;;;3.20;1.50;;;;;;;;;;12848338;23;20427;-84
2023/05/25 00:27:39;;;;;;;3.25;1.65;;;;;;;;;;12847826;23;20024;-84
2023/05/25 00:32:43;;;;;;;2.92;1.50;;;;;;;;;;12821390;23;20017;-84
2023/05/25 00:37:48;;;;;;;2.78;1.50;;;;;;;;;;12820010;23;20028;-84
2023/05/25 00:42:52;;;;;;;4.80;2.00;;;;;;;;;;12819176;23;20028;-84
2023/05/25 00:47:55;;;;;;;2.70;1.40;;;;;;;;;;12820330;23;20035;-85
2023/05/25 00:53:00;;;;;;;2.13;1.40;;;;;;;;;;12818976;23;20025;-84
2023/05/25 00:58:05;;;;;;;2.58;1.50;;;;;;;;;;12817620;23;20419;-84
2023/05/25 01:03:16;;;;;;;3.92;1.40;;;;;;;;;;12818041;23;20406;-84
2023/05/25 01:08:24;;;;;;;2.83;1.50;;;;;;;;;;12821038;23;20027;-84
2023/05/25 01:13:28;;;;;;;3.63;1.65;;;;;;;;;;12847132;23;20020;-84
2023/05/25 01:18:33;;;;;;;1.98;1.40;;;;;;;;;;12859904;23;20024;-84
2023/05/25 01:23:46;;;;;;;4.03;1.37;;;;;;;;;;12912410;23;20027;-84
2023/05/25 01:28:53;;;;;;;1.83;1.20;;;;;;;;;;12884552;23;20095;-84
2023/05/25 01:33:57;;;;;;;2.33;1.35;;;;;;;;;;12881652;23;20023;-84
2023/05/25 01:39:02;;;;;;;3.55;1.40;;;;;;;;;;12885601;23;20024;-84
2023/05/25 01:44:07;;;;;;;3.75;1.65;;;;;;;;;;12834802;23;20028;-83
2023/05/25 01:49:18;;;;;;;2.55;1.50;;;;;;;;;;12821025;23;20231;-85
2023/05/25 01:54:29;;;;;;;2.63;1.30;;;;;;;;;;12817986;23;20020;-84
2023/05/25 01:59:33;;;;;;;2.15;1.35;;;;;;;;;;12821676;23;20024;-83
2023/05/25 02:04:38;;;;;;;2.55;1.50;;;;;;;;;;12869714;23;20043;-84
2023/05/25 02:09:43;;;;;;;1.73;1.17;;;;;;;;;;12881736;23;20024;-83
2023/05/25 02:14:47;;;;;;;1.63;1.27;;;;;;;;;;12881871;23;20028;-84
2023/05/25 02:19:51;;;;;;;2.72;1.20;;;;;;;;;;12880336;23;20020;-83
2023/05/25 02:24:56;;;;;;;2.25;1.45;;;;;;;;;;12879450;23;20051;-84
2023/05/25 02:29:59;;;;;;;2.53;1.40;;;;;;;;;;12879218;23;20020;-84
2023/05/25 02:35:05;;;;;;;2.03;1.35;;;;;;;;;;12878902;23;20032;-84
2023/05/25 02:40:12;;;;;;;3.65;1.52;;;;;;;;;;12877428;23;20024;-84
2023/05/25 02:45:15;;;;;;;2.42;1.20;;;;;;;;;;12882921;23;20103;-84
2023/05/25 02:50:19;;;;;;;1.73;1.20;;;;;;;;;;12888207;23;20483;-84
2023/05/25 02:55:27;;;;;;;1.55;1.00;;;;;;;;;;12887787;23;20033;-83
2023/05/25 03:00:30;;;;;;;1.95;1.20;;;;;;;;;;12887545;23;20256;-85
2023/05/25 03:05:34;;;;;;;2.85;1.38;;;;;;;;;;12889043;23;20016;-84
2023/05/25 03:10:39;;;;;;;5.18;1.60;;;;;;;;;;12888791;23;20134;-83
2023/05/25 03:15:43;;;;;;;1.43;1.20;;;;;;;;;;12885761;23;20020;-84
2023/05/25 03:20:47;;;;;;;3.17;1.85;;;;;;;;;;12886930;23;20024;-84
2023/05/25 03:25:52;;;;;;;1.63;1.20;;;;;;;;;;12886705;23;20404;-84
2023/05/25 03:30:57;;;;;;;3.05;1.40;;;;;;;;;;12886046;23;20028;-84
2023/05/25 03:36:00;;;;;;;1.92;1.33;;;;;;;;;;12885113;23;20026;-83
2023/05/25 03:41:05;;;;;;;2.53;1.48;;;;;;;;;;12886085;23;20035;-84
2023/05/25 03:46:10;;;;;;;2.60;1.85;;;;;;;;;;12887532;23;20028;-83
2023/05/25 03:51:13;;;;;;;3.20;1.90;;;;;;;;;;12885886;23;20074;-84
2023/05/25 03:56:18;;;;;;;3.03;1.52;;;;;;;;;;12885585;23;20031;-84
2023/05/25 04:01:25;;;;;;;2.13;1.55;;;;;;;;;;12888915;23;20525;-84
2023/05/25 04:06:28;;;;;;;3.85;2.10;;;;;;;;;;12888584;23;20016;-84
2023/05/25 04:11:33;;;;;;;2.47;1.55;;;;;;;;;;12882717;23;20028;-83
2023/05/25 04:16:36;;;;;;;2.47;1.45;;;;;;;;;;12929576;23;20040;-84
2023/05/25 04:21:40;;;;;;;1.73;1.40;;;;;;;;;;12890256;23;20515;-84
2023/05/25 04:26:45;;;;;;;3.78;1.50;;;;;;;;;;12889343;23;20406;-84
2023/05/25 04:31:50;;;;;;;1.90;1.45;;;;;;;;;;12884777;23;20035;-85
2023/05/25 04:37:29;;;;;;;2.00;1.38;;;;;;;;;;12773397;23;20028;-84
2023/05/25 04:42:36;;;;;;;3.20;1.23;;;;;;;;;;12884781;23;20024;-84
2023/05/25 04:47:41;;;;;;;3.15;1.50;;;;;;;;;;12880053;23;20023;-86
2023/05/25 04:52:46;;;;;;;2.33;1.40;;;;;;;;;;12878745;23;20102;-85
2023/05/25 04:57:52;;;;;;;2.40;1.63;;;;;;;;;;12876593;23;20136;-85
2023/05/25 05:02:56;;;;;;;2.43;1.50;;;;;;;;;;12881387;23;20024;-83
2023/05/25 05:08:02;;;;;;;2.95;1.50;;;;;;;;;;12843940;22;20040;-85
2023/05/25 05:13:07;;;;;;;3.00;1.65;;;;;;;;;;12811458;23;20108;-85
2023/05/25 05:18:12;;;;;;;1.48;1.33;;;;;;;;;;12811334;23;20056;-84
2023/05/25 05:23:16;;;;;;;1.73;1.42;;;;;;;;;;12812033;23;20024;-85
2023/05/25 05:28:26;;;;;;;3.13;1.45;;;;;;;;;;12811092;23;20083;-85
2023/05/25 05:33:30;;;;;;;3.60;1.52;;;;;;;;;;12849583;23;20070;-85
2023/05/25 05:38:34;;;;;;;4.72;2.08;;;;;;;;;;12874335;23;20039;-85
2023/05/25 05:43:41;;;;;;;2.10;1.60;;;;;;;;;;12874145;23;20336;-86
2023/05/25 05:48:44;;;;;;;2.60;1.30;;;;;;;;;;12871560;23;20086;-85
2023/05/25 05:53:47;;;;;;;1.63;1.52;;;;;;;;;;12873673;23;20463;-86
2023/05/25 05:58:56;;;;;;;6.07;2.60;;;;;;;;;;12834033;23;20025;-92
2023/05/25 06:04:00;;;;;;;6.20;2.95;;;;;;;;;;12823481;23;20021;-88
2023/05/25 06:09:07;;;;;;;6.25;2.60;;;;;;;;;;12823414;23;20025;-88
2023/05/25 06:14:15;;;;;;;7.93;3.58;;;;;;;;;;12901559;23;20708;-90
2023/05/25 06:19:18;;;;;;;6.25;3.03;;;;;;;;;;12838499;23;20025;-93
2023/05/25 06:24:23;;;;;;;3.08;1.98;;;;;;;;;;12822598;23;20024;-89
2023/05/25 06:29:28;;;;;;;4.13;1.75;;;;;;;;;;12822337;23;20520;-94
2023/05/25 06:34:33;;;;;;;5.45;2.22;;;;;;;;;;12821703;23;20025;-89
2023/05/25 06:39:38;;;;;;;5.63;2.20;;;;;;;;;;12847689;23;20020;-89
2023/05/25 06:44:43;;;;;;;5.40;2.78;;;;;;;;;;12848123;23;20028;-92
2023/05/25 06:49:47;;;;;;;8.85;3.40;;;;;;;;;;12849108;23;20290;-89
2023/05/25 06:54:51;;;;;;;7.50;4.35;;;;;;;;;;12823793;23;20020;-89
2023/05/25 06:59:59;;;;;;;7.53;4.05;;;;;;;;;;12823374;23;20047;-91
2023/05/25 07:05:07;;;;;;;6.97;3.65;;;;;;;;;;12824030;23;20086;-92
2023/05/25 07:10:12;;;;;;;7.93;3.17;;;;;;;;;;12822728;23;20026;-90
2023/05/25 07:15:22;;;;;;;5.47;3.40;;;;;;;;;;12820798;23;20573;-91
2023/05/25 07:20:32;;;;;;;8.25;3.38;;;;;;;;;;12846620;23;20025;-92
2023/05/25 07:25:42;;;;;;;9.27;4.35;;;;;;;;;;12871727;23;20123;-91
2023/05/25 07:30:48;;;;;;;5.05;2.70;;;;;;;;;;12847766;23;20062;-90
2023/05/25 07:35:55;;;;;;;8.05;3.67;;;;;;;;;;12821628;23;20079;-91
2023/05/25 07:41:00;;;;;;;5.15;2.88;;;;;;;;;;12822007;23;20035;-90
2023/05/25 07:46:06;;;;;;;8.10;3.30;;;;;;;;;;12823161;23;20055;-91
2023/05/25 07:51:14;;;;;;;5.53;2.65;;;;;;;;;;12847581;23;20020;-90
2023/05/25 07:56:21;;;;;;;7.90;3.97;;;;;;;;;;12846971;23;20025;-91
2023/05/25 08:01:30;;;;;;;5.10;2.90;;;;;;;;;;12846078;23;20020;-90
2023/05/25 08:06:36;;;;;;;7.38;2.65;;;;;;;;;;12820531;23;20082;-90
2023/05/25 08:11:40;;;;;;;4.23;2.23;;;;;;;;;;12821769;23;20472;-90
2023/05/25 08:16:45;;;;;;;5.60;2.53;;;;;;;;;;12848683;23;20292;-92
2023/05/25 08:21:52;;;;;;;5.32;2.80;;;;;;;;;;12822351;23;20048;-90
2023/05/25 08:26:55;;;;;;;5.28;2.13;;;;;;;;;;12822211;23;20031;-90
2023/05/25 08:32:01;;;;;;;4.47;2.30;;;;;;;;;;12848894;23;20031;-89
2023/05/25 08:37:05;;;;;;;4.20;2.25;;;;;;;;;;12815039;23;20028;-89
2023/05/25 08:42:09;;;;;;;3.78;2.33;;;;;;;;;;12819926;23;20336;-90
2023/05/25 08:47:18;;;;;;;5.80;1.90;;;;;;;;;;12820503;23;20032;-90
2023/05/25 08:52:23;;;;;;;3.55;1.85;;;;;;;;;;12821532;23;20096;-90
2023/05/25 08:57:34;;;;;;;2.95;1.55;;;;;;;;;;12847532;23;20106;-92
2023/05/25 09:02:45;;;;;;;3.67;1.92;;;;;;;;;;12847756;23;20359;-91
2023/05/25 09:07:52;;;;;;;3.85;1.73;;;;;;;;;;12821130;23;20032;-90
2023/05/25 09:12:56;;;;;;;5.38;2.35;;;;;;;;;;12846859;23;20075;-92
2023/05/25 09:18:03;;;;;;;3.25;1.95;;;;;;;;;;12847568;23;20027;-92
2023/05/25 09:23:17;;;;;;;4.43;2.25;;;;;;;;;;12848779;23;20025;-91
2023/05/25 09:28:25;;;;;;;5.28;1.90;;;;;;;;;;12850720;23;20032;-90
2023/05/25 09:33:38;;;;;;;6.57;1.88;;;;;;;;;;12846673;23;20117;-92
2023/05/25 09:38:42;;;;;;;6.88;2.05;;;;;;;;;;12825696;23;20024;-92
2023/05/25 09:43:47;;;;;;;3.42;1.80;;;;;;;;;;12852548;23;20043;-90
2023/05/25 09:49:18;;;;;;;5.07;2.13;;;;;;;;;;12831193;23;20032;-94
2023/05/25 10:00:17;;;;;;;4.40;1.60;;;;;;;;;;12640615;23;20040;-90
2023/05/25 10:05:23;;;;;;;4.22;1.67;;;;;;;;;;12885363;22;20467;-93
2023/05/25 10:10:27;;;;;;;2.30;1.30;;;;;;;;;;12887820;23;20379;-89
2023/05/25 10:15:31;;;;;;;2.92;1.73;;;;;;;;;;12975174;22;20020;-89
2023/05/25 10:20:37;;;;;;;4.88;1.63;;;;;;;;;;12949575;22;20507;-89
2023/05/25 10:25:43;;;;;;;;;;;;;;;;;;12949474;22;20016;-88
2023/05/25 10:30:48;;;;;;;3.28;1.60;;;;;;;;;;12974675;22;20362;-89
2023/05/25 10:35:55;;;;;;;3.40;1.27;;;;;;;;;;12948429;22;20019;-88
2023/05/25 10:41:05;;;;;;;4.28;1.70;;;;;;;;;;12975033;22;20034;-92
2023/05/25 10:46:10;;;;;;;2.67;1.60;;;;;;;;;;12947936;22;20028;-88
2023/05/25 10:51:15;;;;;;;2.53;1.33;;;;;;;;;;12947213;22;20355;-90
2023/05/25 10:56:19;;;;;;;2.08;1.10;;;;;;;;;;12972592;22;20020;-88
2023/05/25 11:01:23;;;;;;;3.90;1.77;;;;;;;;;;12944608;22;20043;-92
2023/05/25 11:07:07;;;;;;;2.42;1.58;;;;;;;;;;12971153;22;20028;-82
2023/05/25 11:12:21;;;;;;;4.10;1.70;;;;;;;;;;12946654;22;20016;-82
2023/05/25 11:17:26;;;;;;;3.70;1.60;;;;;;;;;;13004605;22;20489;-85
2023/05/25 11:22:34;;;;;;;3.37;1.67;;;;;;;;;;13001962;22;20076;-86
2023/05/25 11:27:46;;;;;;;2.33;1.20;;;;;;;;;;13004709;22;20811;-86
2023/05/25 11:32:50;;;;;;;1.98;1.10;;;;;;;;;;13001386;22;20024;-85
2023/05/25 11:37:55;;;;;;;1.85;1.27;;;;;;;;;;12998121;22;20027;-85
2023/05/25 11:43:00;;;;;;;1.60;0.75;;;;;;;;;;12999847;22;20033;-85
2023/05/25 11:48:04;;;;;;;2.20;1.43;;;;;;;;;;13003680;22;20027;-85
2023/05/25 11:53:09;;;;;;;2.60;1.17;;;;;;;;;;13027447;22;20027;-85
2023/05/25 11:58:12;;;;;;;3.10;1.23;;;;;;;;;;13028170;22;20497;-85
2023/05/25 12:03:30;;;;;;;2.78;1.48;;;;;;;;;;13005246;22;20023;-87
2023/05/25 12:08:35;;;;;;;4.88;1.70;;;;;;;;;;13008972;22;20019;-85
2023/05/25 12:13:41;;;;;;;2.15;1.20;;;;;;;;;;13005952;22;20042;-85
2023/05/25 12:18:45;;;;;;;3.22;1.50;;;;;;;;;;13006978;22;20019;-86
2023/05/25 12:23:54;;;;;;;4.22;1.77;;;;;;;;;;13009961;22;20020;-84
2023/05/25 12:29:01;;;;;;;2.63;1.55;;;;;;;;;;13011057;22;20023;-84
2023/05/25 12:34:06;;;;;;;2.75;1.13;;;;;;;;;;13005293;22;20568;-84
2023/05/25 12:39:13;;;;;;;3.13;1.53;;;;;;;;;;13008709;22;20026;-84
2023/05/25 12:44:21;;;;;;;2.15;1.17;;;;;;;;;;13041206;22;20023;-83
2023/05/25 12:49:28;;;;;;;3.15;1.30;;;;;;;;;;13008035;22;20027;-83
2023/05/25 12:54:40;;;;;;;3.17;1.48;;;;;;;;;;13007391;22;20485;-84
2023/05/25 12:59:45;;;;;;;2.97;1.38;;;;;;;;;;13007935;22;20019;-84
2023/05/25 13:04:49;;;;;;;4.13;1.42;;;;;;;;;;13009089;22;20034;-84
2023/05/25 13:09:54;;;;;;;2.10;1.10;;;;;;;;;;13008737;22;20084;-84
2023/05/25 13:14:57;;;;;;;1.63;1.20;;;;;;;;;;13010329;22;20019;-84
2023/05/25 13:20:00;;;;;;;4.07;1.80;;;;;;;;;;13038192;22;20493;-84
2023/05/25 13:25:06;;;;;;;2.30;1.10;;;;;;;;;;13010783;22;20023;-84
2023/05/25 13:30:10;;;;;;;2.88;1.40;;;;;;;;;;13010232;22;20084;-84
2023/05/25 13:35:18;;;;;;;2.60;1.33;;;;;;;;;;13037928;22;20129;-84
2023/05/25 13:40:23;;;;;;;1.75;1.10;;;;;;;;;;13010393;22;20025;-84
2023/05/25 13:45:26;;;;;;;2.55;1.55;;;;;;;;;;13009721;22;20031;-84
2023/05/25 13:50:30;;;;;;;3.65;1.63;;;;;;;;;;13009996;22;20529;-86
2023/05/25 13:55:35;;;;;;;2.63;1.40;;;;;;;;;;13011106;22;20049;-85
2023/05/25 14:00:39;;;;;;;1.95;1.48;;;;;;;;;;13008547;22;20015;-87
2023/05/25 14:05:42;;;;;;;2.95;1.60;;;;;;;;;;13008407;22;20023;-84
2023/05/25 14:10:47;;;;;;;3.28;1.63;;;;;;;;;;13057871;22;20015;-84
2023/05/25 14:15:51;;;;;;;0.95;0.88;;;;;;;;;;13009802;22;20019;-84
2023/05/25 14:20:54;;;;;;;2.05;1.23;;;;;;;;;;13035055;22;20767;-84
2023/05/25 14:25:59;;;;;;;2.58;1.02;;;;;;;;;;13037972;22;20023;-84
2023/05/25 14:31:02;;;;;;;2.43;1.27;;;;;;;;;;13009140;22;20019;-85
2023/05/25 14:36:06;;;;;;;3.10;1.20;;;;;;;;;;13055900;22;20692;-83
2023/05/25 14:41:11;;;;;;;1.58;1.30;;;;;;;;;;13009837;22;20019;-84
2023/05/25 14:46:14;;;;;;;2.17;1.27;;;;;;;;;;13035960;22;20015;-85
2023/05/25 14:51:18;;;;;;;2.75;1.30;;;;;;;;;;13035523;22;20027;-84
2023/05/25 14:56:23;;;;;;;1.83;1.10;;;;;;;;;;13008089;22;20050;-85
2023/05/25 15:01:27;;;;;;;2.70;1.30;;;;;;;;;;13005919;22;20027;-85
2023/05/25 15:06:32;;;;;;;2.20;1.30;;;;;;;;;;13008679;22;20033;-84
2023/05/25 15:11:36;;;;;;;1.83;1.10;;;;;;;;;;13006965;22;20618;-84
2023/05/25 15:16:40;;;;;;;1.10;0.93;;;;;;;;;;13007785;22;20023;-85
2023/05/25 15:21:46;;;;;;;1.85;0.93;;;;;;;;;;13007693;22;20365;-84
2023/05/25 15:26:51;;;;;;;1.73;1.10;;;;;;;;;;13036111;22;20073;-84
2023/05/25 15:31:54;;;;;;;3.00;1.33;;;;;;;;;;13033463;22;20050;-84
2023/05/25 15:36:58;;;;;;;2.58;1.27;;;;;;;;;;13050876;22;20361;-84
2023/05/25 15:42:03;;;;;;;2.85;1.60;;;;;;;;;;13048690;22;20027;-85
2023/05/25 15:47:07;;;;;;;2.03;1.10;;;;;;;;;;13006867;22;20050;-85
2023/05/25 15:52:10;;;;;;;1.95;1.27;;;;;;;;;;13006831;22;20019;-84
2023/05/25 15:57:15;;;;;;;1.98;1.13;;;;;;;;;;13035018;22;20047;-85
2023/05/25 16:02:18;;;;;;;3.17;1.27;;;;;;;;;;13005777;22;20030;-86
2023/05/25 16:07:22;;;;;;;3.88;1.50;;;;;;;;;;13005703;22;20030;-84
2023/05/25 16:12:27;;;;;;;2.53;1.50;;;;;;;;;;13005326;22;20054;-85
2023/05/25 16:17:30;;;;;;;2.33;1.40;;;;;;;;;;13007449;22;20395;-84
2023/05/25 16:22:33;;;;;;;3.78;1.67;;;;;;;;;;13031853;22;20030;-84
2023/05/25 16:27:38;;;;;;;1.40;1.13;;;;;;;;;;13005235;22;20023;-84
2023/05/25 16:32:41;;;;;;;1.58;1.10;;;;;;;;;;13004532;22;20397;-84
2023/05/25 16:37:45;;;;;;;3.03;1.08;;;;;;;;;;13034290;22;20053;-84
2023/05/25 16:42:49;;;;;;;1.40;0.90;;;;;;;;;;13004314;22;20046;-85
2023/05/25 16:47:53;;;;;;;3.00;1.35;;;;;;;;;;13001195;22;20019;-84
2023/05/25 16:52:56;;;;;;;2.03;1.15;;;;;;;;;;13002842;22;20030;-84
2023/05/25 16:58:01;;;;;;;1.55;1.20;;;;;;;;;;13002092;22;20034;-84
2023/05/25 17:03:05;;;;;;;1.65;0.95;;;;;;;;;;13003581;22;20023;-84
2023/05/25 17:13:41;;;;;;;1.77;0.93;;;;;;;;;;12986353;22;20019;-83
2023/05/25 17:18:45;;;;;;;5.07;2.00;;;;;;;;;;12996690;22;20016;-84
2023/05/25 17:23:48;;;;;;;3.28;1.50;;;;;;;;;;13000636;22;20023;-84
2023/05/25 17:28:55;;;;;;;1.63;1.13;;;;;;;;;;13003799;22;20011;-84
2023/05/25 17:33:59;;;;;;;9.93;2.25;;;;;;;;;;13002116;22;20488;-84
2023/05/25 17:39:02;;;;;;;3.90;1.55;;;;;;;;;;13002707;22;20069;-84
2023/05/25 17:44:07;;;;;;;2.72;1.10;;;;;;;;;;13029319;22;20023;-84
2023/05/25 17:49:10;;;;;;;2.38;1.38;;;;;;;;;;13000968;22;20045;-84
2023/05/25 17:54:17;;;;;;;3.72;1.20;;;;;;;;;;13033821;22;20054;-84
2023/05/25 17:59:21;;;;;;;3.78;1.52;;;;;;;;;;13005075;22;20023;-84
2023/05/25 18:04:25;;;;;;;2.58;1.20;;;;;;;;;;13008045;22;20023;-84
2023/05/25 18:09:28;;;;;;;1.45;1.30;;;;;;;;;;13033307;22;20026;-84
2023/05/25 18:14:36;;;;;;;2.22;1.30;;;;;;;;;;13008351;22;20027;-85
2023/05/25 18:19:39;;;;;;;3.88;1.58;;;;;;;;;;13040426;22;20369;-85
2023/05/25 18:24:43;;;;;;;3.30;1.75;;;;;;;;;;13005940;22;20466;-84
2023/05/25 18:29:47;;;;;;;2.28;1.63;;;;;;;;;;13030657;22;20069;-84
2023/05/25 18:34:51;;;;;;;2.47;1.17;;;;;;;;;;13006498;22;20057;-85
2023/05/25 18:39:54;;;;;;;2.20;1.20;;;;;;;;;;13031716;22;20529;-85
2023/05/25 18:44:59;;;;;;;2.85;1.50;;;;;;;;;;13005417;22;20058;-85
2023/05/25 18:50:03;;;;;;;2.08;1.13;;;;;;;;;;13027043;22;20019;-85
2023/05/25 18:55:08;;;;;;;3.15;1.35;;;;;;;;;;13003461;22;20027;-84
2023/05/25 19:00:14;;;;;;;2.47;1.40;;;;;;;;;;13001960;22;20019;-84
2023/05/25 19:05:18;;;;;;;2.92;1.50;;;;;;;;;;13002937;22;20060;-85
2023/05/25 19:10:23;;;;;;;3.90;1.75;;;;;;;;;;13031821;22;20019;-85
2023/05/25 19:15:28;;;;;;;3.70;1.40;;;;;;;;;;13002631;22;20430;-84
2023/05/25 19:20:46;;;;;;;2.28;1.40;;;;;;;;;;13028661;22;20350;-85
2023/05/25 19:25:50;;;;;;;5.72;1.75;;;;;;;;;;13008251;22;20029;-85
2023/05/25 19:30:57;;;;;;;2.60;1.45;;;;;;;;;;13025378;22;20026;-85
2023/05/25 19:36:00;;;;;;;2.83;1.20;;;;;;;;;;13003772;22;20304;-85
2023/05/25 19:41:04;;;;;;;2.70;1.17;;;;;;;;;;13004302;22;20030;-85
2023/05/25 19:46:09;;;;;;;2.10;1.23;;;;;;;;;;13002569;22;20054;-85
2023/05/25 19:51:13;;;;;;;2.05;1.40;;;;;;;;;;13002477;22;20371;-85
2023/05/25 19:56:20;;;;;;;2.40;1.30;;;;;;;;;;13005389;22;20470;-85
2023/05/25 20:01:24;;;;;;;3.67;1.50;;;;;;;;;;13030716;22;20077;-85
2023/05/25 20:06:28;;;;;;;2.83;1.17;;;;;;;;;;13003305;22;20015;-84
2023/05/25 20:11:31;;;;;;;3.03;1.30;;;;;;;;;;13031043;22;20035;-84
2023/05/25 20:16:36;;;;;;;3.78;1.45;;;;;;;;;;13004401;22;20028;-84
2023/05/25 20:21:40;;;;;;;3.38;1.38;;;;;;;;;;13045412;22;20251;-84
2023/05/25 20:26:43;;;;;;;2.75;1.33;;;;;;;;;;13002965;22;20023;-84
2023/05/25 20:31:48;;;;;;;4.05;1.90;;;;;;;;;;13003091;22;20023;-84
2023/05/25 20:36:51;;;;;;;2.70;1.65;;;;;;;;;;13002208;22;20065;-85
2023/05/25 20:41:55;;;;;;;2.13;1.40;;;;;;;;;;12991411;22;20393;-85
2023/05/25 20:47:00;;;;;;;3.25;1.55;;;;;;;;;;13019003;22;20118;-84
2023/05/25 20:52:03;;;;;;;2.17;1.80;;;;;;;;;;13001207;22;20416;-84
2023/05/25 20:57:07;;;;;;;4.35;1.58;;;;;;;;;;13002155;22;20030;-84
2023/05/25 21:02:11;;;;;;;3.58;1.30;;;;;;;;;;13026853;22;20248;-84
2023/05/25 21:07:17;;;;;;;2.53;1.30;;;;;;;;;;13001608;22;20046;-84
2023/05/25 21:12:20;;;;;;;3.97;1.43;;;;;;;;;;13024978;22;20108;-85
2023/05/25 21:17:26;;;;;;;4.10;1.85;;;;;;;;;;13000451;22;20319;-85
2023/05/25 21:22:30;;;;;;;1.98;1.38;;;;;;;;;;12998764;22;20032;-84
2023/05/25 21:27:33;;;;;;;2.58;1.20;;;;;;;;;;13041368;22;20537;-84
2023/05/25 21:32:38;;;;;;;4.18;1.52;;;;;;;;;;13003515;22;20023;-85
2023/05/25 21:37:42;;;;;;;1.50;1.17;;;;;;;;;;13005513;22;20876;-85
2023/05/25 21:42:45;;;;;;;2.67;1.50;;;;;;;;;;13003619;22;20019;-84
2023/05/25 21:47:50;;;;;;;2.35;1.55;;;;;;;;;;13032645;22;20027;-85
2023/05/25 21:52:53;;;;;;;2.13;1.52;;;;;;;;;;13004698;22;20030;-85
2023/05/25 21:57:57;;;;;;;3.92;1.33;;;;;;;;;;13033773;22;20540;-85
2023/05/25 22:03:02;;;;;;;4.28;1.95;;;;;;;;;;13004286;22;20470;-85
2023/05/25 22:08:06;;;;;;;10.40;1.45;;;;;;;;;;13031670;22;20062;-87
2023/05/25 22:13:09;;;;;;;2.95;1.60;;;;;;;;;;13004235;22;20080;-85
2023/05/25 22:18:14;;;;;;;4.97;2.22;;;;;;;;;;13004895;22;20406;-84
2023/05/25 22:23:18;;;;;;;5.82;2.33;;;;;;;;;;13002822;22;20030;-86
2023/05/25 22:28:21;;;;;;;5.65;2.10;;;;;;;;;;13003743;22;20023;-86
2023/05/25 22:33:26;;;;;;;2.88;1.77;;;;;;;;;;13004358;22;20039;-87
2023/05/25 22:38:29;;;;;;;3.00;1.83;;;;;;;;;;13004906;22;20432;-87
2023/05/25 22:43:33;;;;;;;3.28;1.67;;;;;;;;;;13004029;22;20027;-84
2023/05/25 22:48:37;;;;;;;3.50;1.80;;;;;;;;;;13004470;22;20088;-84
2023/05/25 22:53:41;;;;;;;2.97;1.95;;;;;;;;;;13004237;22;20370;-84
2023/05/25 22:58:45;;;;;;;3.65;2.22;;;;;;;;;;13004721;22;20027;-84
2023/05/25 23:03:49;;;;;;;4.43;2.00;;;;;;;;;;13032390;22;20035;-85
2023/05/25 23:08:53;;;;;;;4.82;2.03;;;;;;;;;;13030507;22;20029;-86
2023/05/25 23:13:57;;;;;;;4.28;2.08;;;;;;;;;;13038824;22;20027;-86
2023/05/25 23:19:01;;;;;;;4.70;2.05;;;;;;;;;;13004285;22;20042;-85
2023/05/25 23:24:05;;;;;;;2.88;1.80;;;;;;;;;;13003277;22;20027;-85
2023/05/25 23:29:09;;;;;;;3.33;2.33;;;;;;;;;;13003750;22;20019;-85
2023/05/25 23:34:14;;;;;;;5.10;2.60;;;;;;;;;;13004102;22;20030;-86
2023/05/25 23:39:18;;;;;;;4.47;2.60;;;;;;;;;;13031773;22;20482;-85
2023/05/25 23:44:21;;;;;;;4.38;2.30;;;;;;;;;;13002496;22;20016;-85
2023/05/25 23:49:26;;;;;;;4.20;2.08;;;;;;;;;;13004237;22;20481;-86
2023/05/25 23:54:29;;;;;;;4.93;2.55;;;;;;;;;;13028760;22;20031;-85
2023/05/25 23:59:33;;;;;;;3.38;2.10;;;;;;;;;;13028622;22;20462;-85
